Terminal Aerodrome Forecast
Issued by NWS

Home | Current Version | Previous Version | Text Only | Print | Product List | Glossary On
Versions: 1 2 3 4 5 6 7 8 9 10 11 12 13
000
FTUS45 KREV 302300
TAFMMH
TAF
KMMH 302326Z 0100/0124 28013G20KT P6SM FEW070 SCT180
     FM010400 30008KT P6SM SCT035
     FM010800 34011KT P6SM SCT025 BKN035
     FM011700 11010KT P6SM FEW040
      AMD NOT SKED 0102/0114=

USA.gov is the U.S. government's official web portal to all federal, state and local government web resources and services.